Time;durP1;ratioP1;P1;durP2;ratioP2;P2;SDS_P1;SDS_P2;PMS_P1;PMS_P2;Temp;Humidity;BMP_temperature;BMP_pressure;BME280_temperature;BME280_humidity;BME280_pressure;Samples;Min_cycle;Max_cycle;Signal;HPM_P1;HPM_P2
2023/01/19 00:00:52;;;;;;;14.03;10.93;;;;;;;3.73;55.05;97752.97;7008962;28;20233;-80
2023/01/19 00:04:14;;;;;;;11.97;9.20;;;;;;;3.56;55.63;97749.72;7008163;28;20270;-80
2023/01/19 00:07:35;;;;;;;14.43;10.77;;;;;;;3.43;56.52;97748.72;7008141;28;20229;-80
2023/01/19 00:10:57;;;;;;;15.63;11.00;;;;;;;2.78;58.18;97738.00;7008118;28;20296;-80
2023/01/19 00:14:20;;;;;;;14.20;10.37;;;;;;;3.31;57.31;97759.00;7007159;28;20573;-80
2023/01/19 00:17:41;;;;;;;15.47;10.10;;;;;;;3.45;56.11;97752.03;7007017;28;20713;-80
2023/01/19 00:21:03;;;;;;;13.30;9.87;;;;;;;3.74;56.02;97760.78;7007267;28;20300;-81
2023/01/19 00:24:24;;;;;;;13.93;10.07;;;;;;;3.57;56.07;97753.19;7006198;28;20289;-80
2023/01/19 00:27:48;;;;;;;15.83;10.13;;;;;;;3.75;55.97;97765.09;7006776;28;20857;-80
2023/01/19 00:31:11;;;;;;;13.17;10.27;;;;;;;3.54;56.55;97757.06;7007287;28;20203;-80
2023/01/19 00:34:38;;;;;;;12.67;10.00;;;;;;;3.50;56.22;97750.47;7006522;28;20691;-80
2023/01/19 00:38:00;;;;;;;12.70;9.90;;;;;;;3.06;57.24;97748.81;7030644;28;20252;-80
2023/01/19 00:42:38;;;;;;;14.37;10.40;;;;;;;3.52;56.19;97760.91;7033904;28;20197;-80
2023/01/19 00:45:05;;;;;;;11.17;9.53;;;;;;;3.26;56.62;97776.56;7033340;28;20202;-80
2023/01/19 00:48:29;;;;;;;14.60;9.33;;;;;;;3.25;56.26;97767.75;7034695;28;20230;-80
2023/01/19 00:51:51;;;;;;;18.20;10.43;;;;;;;2.76;57.82;97777.28;7034843;28;20214;-80
2023/01/19 00:55:13;;;;;;;12.53;9.17;;;;;;;3.11;56.42;97762.41;7033509;28;20286;-80
2023/01/19 00:58:35;;;;;;;15.10;10.57;;;;;;;2.95;57.28;97779.41;7034108;28;20315;-80
2023/01/19 01:01:56;;;;;;;12.70;9.30;;;;;;;3.44;56.54;97775.19;7033959;28;20209;-80
2023/01/19 01:05:19;;;;;;;10.87;8.53;;;;;;;3.84;54.23;97760.50;7033017;28;20205;-80
2023/01/19 01:08:41;;;;;;;12.37;9.57;;;;;;;3.34;56.49;97768.47;7033679;28;20311;-80
2023/01/19 01:12:02;;;;;;;14.17;10.00;;;;;;;2.95;57.05;97778.59;7033286;28;20297;-80
2023/01/19 01:15:25;;;;;;;10.73;8.77;;;;;;;3.35;55.94;97700.88;7032783;28;20302;-80
2023/01/19 01:18:47;;;;;;;12.10;9.00;;;;;;;3.83;54.94;97764.97;7033155;28;20319;-80
2023/01/19 01:22:10;;;;;;;15.70;11.27;;;;;;;3.50;55.67;97715.84;7033141;28;20242;-81
2023/01/19 01:25:36;;;;;;;21.27;12.63;;;;;;;3.85;56.53;97752.31;7032789;28;20282;-81
2023/01/19 01:28:57;;;;;;;15.10;10.13;;;;;;;3.79;55.74;97773.56;7034041;28;20283;-80
2023/01/19 01:32:19;;;;;;;11.30;9.67;;;;;;;4.11;55.22;97778.41;7035815;28;20271;-80
2023/01/19 01:35:40;;;;;;;14.63;10.13;;;;;;;4.25;55.08;97757.00;7033234;28;20808;-80
2023/01/19 01:39:03;;;;;;;10.37;9.00;;;;;;;4.31;53.59;97774.91;7033863;28;20305;-80
2023/01/19 01:42:27;;;;;;;12.50;9.50;;;;;;;4.32;53.92;97767.75;7033628;28;20268;-81
2023/01/19 01:45:49;;;;;;;11.53;8.50;;;;;;;4.64;54.13;97777.88;7032914;28;20225;-80
2023/01/19 01:49:13;;;;;;;10.90;8.37;;;;;;;3.95;54.18;97776.81;7032996;28;20280;-80
2023/01/19 01:52:37;;;;;;;11.13;8.43;;;;;;;4.06;53.91;97722.97;7032253;28;20266;-80
2023/01/19 01:56:02;;;;;;;12.10;9.77;;;;;;;4.44;54.05;97771.56;7032605;28;20226;-80
2023/01/19 01:59:26;;;;;;;14.93;10.00;;;;;;;3.79;55.78;97782.34;7032866;28;20560;-81
2023/01/19 02:02:51;;;;;;;11.83;9.07;;;;;;;3.95;54.99;97784.81;7032648;28;20206;-80
2023/01/19 02:06:13;;;;;;;11.67;8.30;;;;;;;3.88;54.59;97773.25;7031969;28;20706;-80
2023/01/19 02:13:20;;;;;;;10.77;8.03;;;;;;;4.26;52.63;97781.84;7032002;28;20214;-80
2023/01/19 02:16:42;;;;;;;10.20;8.13;;;;;;;4.58;52.11;97779.47;7031323;28;20229;-81
2023/01/19 02:20:04;;;;;;;10.27;8.33;;;;;;;4.64;51.54;97789.38;7031916;28;20213;-80
2023/01/19 02:23:44;;;;;;;12.10;9.07;;;;;;;3.05;54.28;97763.16;7031736;28;20249;-80
2023/01/19 02:27:07;;;;;;;9.83;8.30;;;;;;;3.64;54.52;97783.41;7031633;28;20275;-80
2023/01/19 02:30:29;;;;;;;11.53;8.40;;;;;;;4.10;53.60;97774.94;7032213;28;20207;-81
2023/01/19 02:33:51;;;;;;;11.57;8.60;;;;;;;4.38;52.74;97788.31;7032134;28;20334;-81
2023/01/19 02:37:15;;;;;;;11.30;7.67;;;;;;;4.03;53.46;97775.88;7019915;28;20230;-81
2023/01/19 02:40:39;;;;;;;9.97;8.00;;;;;;;4.19;52.31;97773.78;7003840;28;20300;-81
2023/01/19 02:44:01;;;;;;;8.77;7.87;;;;;;;4.43;52.43;97788.59;7003547;28;20314;-80
2023/01/19 02:47:23;;;;;;;11.13;8.67;;;;;;;4.61;51.75;97779.09;7002681;28;20345;-81
2023/01/19 02:50:48;;;;;;;8.93;6.80;;;;;;;4.82;51.26;97787.06;7003176;28;20270;-81
2023/01/19 02:54:28;;;;;;;11.67;9.67;;;;;;;4.49;51.60;97790.50;7003446;28;20208;-81
2023/01/19 02:57:58;;;;;;;11.23;9.10;;;;;;;4.31;52.15;97774.91;7003081;28;20703;-81
2023/01/19 03:01:24;;;;;;;13.17;8.27;;;;;;;3.89;53.64;97784.75;7003358;28;20324;-81
2023/01/19 03:04:59;;;;;;;11.60;8.20;;;;;;;4.65;52.23;97798.25;7002252;28;20266;-80
2023/01/19 03:08:30;;;;;;;13.50;8.43;;;;;;;4.59;51.67;97794.47;7002589;28;20706;-81
2023/01/19 03:11:56;;;;;;;10.37;8.43;;;;;;;4.67;51.61;97802.34;7002982;28;20236;-81
2023/01/19 03:15:23;;;;;;;16.17;10.07;;;;;;;4.27;52.68;97794.16;7002664;28;20190;-81
2023/01/19 03:18:47;;;;;;;11.47;8.97;;;;;;;3.54;53.65;97727.75;7002737;28;20288;-81
2023/01/19 03:22:13;;;;;;;11.47;9.17;;;;;;;3.70;54.30;97796.81;7002789;28;20579;-81
2023/01/19 03:25:37;;;;;;;13.87;9.73;;;;;;;3.90;53.60;97794.41;7002209;28;20568;-81
2023/01/19 03:29:00;;;;;;;10.93;9.43;;;;;;;4.19;53.67;97788.97;7002999;28;20212;-81
2023/01/19 03:32:28;;;;;;;12.07;9.73;;;;;;;4.13;52.96;97766.53;7002745;28;20297;-80
2023/01/19 03:35:52;;;;;;;10.30;9.07;;;;;;;4.25;51.93;97802.34;7002233;28;20325;-81
2023/01/19 03:39:18;;;;;;;10.97;8.00;;;;;;;4.09;52.99;97804.44;7003801;28;20700;-80
2023/01/19 03:42:40;;;;;;;10.70;8.37;;;;;;;4.34;52.19;97797.72;7003750;28;20271;-80
2023/01/19 03:46:03;;;;;;;13.33;9.47;;;;;;;3.57;53.16;97775.34;7002575;28;20826;-80
2023/01/19 03:49:26;;;;;;;9.80;8.13;;;;;;;3.39;53.51;97782.91;7002703;28;20206;-80
2023/01/19 03:53:00;;;;;;;11.33;8.87;;;;;;;3.79;53.08;97801.00;7002834;28;20211;-80
2023/01/19 03:56:23;;;;;;;12.47;9.10;;;;;;;4.07;52.67;97795.81;7001846;28;20222;-79
2023/01/19 03:59:45;;;;;;;12.23;8.33;;;;;;;3.86;52.73;97809.94;7002630;28;20230;-80
2023/01/19 04:03:11;;;;;;;10.53;9.30;;;;;;;3.51;54.08;97818.72;7002736;28;20274;-81
2023/01/19 04:06:33;;;;;;;13.40;10.07;;;;;;;3.54;53.38;97822.84;7002017;28;20239;-81
2023/01/19 04:09:55;;;;;;;11.70;9.37;;;;;;;3.09;54.69;97823.88;7002245;28;20210;-81
2023/01/19 04:13:16;;;;;;;10.50;9.40;;;;;;;3.73;54.42;97823.09;7001884;28;20217;-80
2023/01/19 04:16:38;;;;;;;12.60;9.67;;;;;;;4.08;52.82;97822.28;7004423;28;20233;-81
2023/01/19 04:20:00;;;;;;;10.77;9.00;;;;;;;3.89;52.90;97804.22;7006934;28;20634;-81
2023/01/19 04:23:23;;;;;;;12.60;10.57;;;;;;;3.89;52.54;97811.41;7007006;28;20219;-80
2023/01/19 04:26:44;;;;;;;15.00;9.67;;;;;;;3.12;54.16;97767.56;7006711;28;20256;-81
2023/01/19 04:30:08;;;;;;;15.00;11.53;;;;;;;3.61;53.80;97829.91;7007136;28;20658;-80
2023/01/19 04:33:30;;;;;;;15.67;11.63;;;;;;;3.93;52.75;97832.16;7006928;28;20840;-80
2023/01/19 04:36:52;;;;;;;15.90;12.17;;;;;;;3.91;52.16;97830.69;7005733;28;20255;-81
2023/01/19 04:40:15;;;;;;;16.40;11.37;;;;;;;3.69;52.92;97831.66;7029982;28;20255;-81
2023/01/19 04:43:36;;;;;;;14.60;10.03;;;;;;;3.09;54.50;97837.19;7034470;28;20284;-80
2023/01/19 04:46:58;;;;;;;18.53;9.63;;;;;;;3.49;54.12;97846.56;7033696;28;20221;-81
2023/01/19 04:50:19;;;;;;;13.10;10.00;;;;;;;2.83;55.37;97849.25;7033808;28;20205;-81
2023/01/19 04:53:41;;;;;;;13.30;9.37;;;;;;;3.45;53.83;97838.13;7033684;28;20201;-81
2023/01/19 04:57:04;;;;;;;14.03;10.20;;;;;;;3.24;54.84;97845.19;7033762;28;20279;-81
2023/01/19 05:00:26;;;;;;;14.00;10.47;;;;;;;3.49;54.04;97836.72;7034196;28;20320;-81
2023/01/19 05:03:47;;;;;;;14.80;11.33;;;;;;;3.42;54.48;97827.00;7033703;28;20208;-80
2023/01/19 05:07:09;;;;;;;12.57;10.43;;;;;;;2.92;55.69;97845.50;7033312;28;20290;-81
2023/01/19 05:10:30;;;;;;;14.73;11.03;;;;;;;3.82;53.66;97829.13;7033183;28;20296;-80
2023/01/19 05:13:53;;;;;;;15.07;11.20;;;;;;;2.65;55.26;97840.75;7033242;28;20725;-81
2023/01/19 05:17:15;;;;;;;12.43;10.87;;;;;;;3.32;55.20;97843.22;7033061;28;20225;-80
2023/01/19 05:20:36;;;;;;;13.67;10.30;;;;;;;3.66;54.17;97822.19;7033124;28;20309;-81
2023/01/19 05:23:58;;;;;;;17.90;11.33;;;;;;;3.42;53.13;97849.13;7033261;28;20702;-81
2023/01/19 05:27:19;;;;;;;14.70;10.97;;;;;;;3.04;54.86;97834.22;7032643;28;20362;-81
2023/01/19 05:30:42;;;;;;;12.97;10.83;;;;;;;3.29;53.37;97805.47;7030702;28;20225;-80
2023/01/19 05:34:04;;;;;;;17.40;12.17;;;;;;;3.66;53.14;97851.50;7012063;28;20197;-79
2023/01/19 05:37:25;;;;;;;16.77;11.93;;;;;;;3.37;53.46;97864.81;7017135;28;20225;-80
2023/01/19 05:40:47;;;;;;;18.87;10.93;;;;;;;2.70;54.42;97836.53;7032106;28;20280;-80
2023/01/19 05:44:09;;;;;;;13.80;10.40;;;;;;;2.72;56.16;97865.63;7020701;28;20288;-79
2023/01/19 05:47:32;;;;;;;13.90;10.50;;;;;;;2.97;55.19;97872.41;7032446;28;20376;-79
2023/01/19 05:50:57;;;;;;;16.93;11.50;;;;;;;3.19;55.31;97864.34;7032332;28;20723;-79
2023/01/19 05:54:19;;;;;;;19.67;13.83;;;;;;;2.65;55.96;97838.91;7032096;28;20326;-79
2023/01/19 05:57:41;;;;;;;17.63;12.93;;;;;;;3.16;54.94;97869.22;7031658;28;20710;-80
2023/01/19 06:01:04;;;;;;;15.53;13.53;;;;;;;3.15;54.14;97870.22;7031572;28;20209;-79
2023/01/19 06:04:27;;;;;;;22.10;13.47;;;;;;;2.73;55.86;97878.75;7030326;28;20205;-79
2023/01/19 06:07:48;;;;;;;21.53;15.17;;;;;;;3.00;55.08;97880.84;7030788;28;20221;-80
2023/01/19 06:11:10;;;;;;;19.27;12.97;;;;;;;2.61;55.95;97872.19;7012472;28;20254;-80
2023/01/19 06:14:32;;;;;;;17.97;12.50;;;;;;;3.03;55.31;97882.31;7002628;28;20347;-81
2023/01/19 06:17:53;;;;;;;19.23;13.03;;;;;;;3.00;55.40;97867.53;7030072;28;20217;-80
2023/01/19 06:21:16;;;;;;;18.37;12.70;;;;;;;2.76;55.78;97838.47;7031555;28;20257;-80
2023/01/19 06:24:38;;;;;;;18.43;13.33;;;;;;;3.41;53.98;97878.59;7032194;28;20234;-80
2023/01/19 06:27:59;;;;;;;18.80;13.20;;;;;;;2.28;57.33;97886.75;7022763;28;20281;-80
2023/01/19 06:31:21;;;;;;;16.33;12.27;;;;;;;2.36;57.69;97894.66;7003941;28;20288;-80
2023/01/19 06:34:42;;;;;;;15.20;10.77;;;;;;;2.18;57.88;97891.44;7002236;28;20620;-80
2023/01/19 06:38:05;;;;;;;15.77;9.03;;;;;;;2.25;57.32;97887.06;7001979;28;20249;-80
2023/01/19 06:41:27;;;;;;;15.37;9.33;;;;;;;2.17;57.29;97884.47;7023591;28;20249;-80
2023/01/19 06:44:48;;;;;;;14.27;8.93;;;;;;;2.48;55.83;97893.25;7029671;28;20581;-81
2023/01/19 06:48:10;;;;;;;13.37;9.47;;;;;;;2.56;55.56;97884.38;7029614;28;20218;-80
2023/01/19 06:51:31;;;;;;;12.53;9.90;;;;;;;3.27;54.37;97888.25;7032581;28;20255;-80
2023/01/19 06:54:54;;;;;;;14.07;9.23;;;;;;;3.34;53.94;97896.31;7033189;28;20289;-80
2023/01/19 06:58:16;;;;;;;14.37;9.87;;;;;;;3.29;53.47;97898.69;7034813;28;20367;-81
2023/01/19 07:01:37;;;;;;;13.37;8.97;;;;;;;3.01;54.72;97924.28;7033296;28;20346;-80
2023/01/19 07:04:59;;;;;;;11.83;9.63;;;;;;;3.40;53.95;97915.09;7029891;28;20772;-80
2023/01/19 07:08:20;;;;;;;14.83;9.03;;;;;;;3.03;53.71;97915.13;7041987;28;20221;-80
2023/01/19 07:11:43;;;;;;;11.80;9.93;;;;;;;3.45;52.70;97906.53;7037401;28;20276;-80
2023/01/19 07:15:06;;;;;;;17.30;10.67;;;;;;;3.19;53.57;97922.13;7035862;28;20202;-80
2023/01/19 07:18:28;;;;;;;15.77;10.37;;;;;;;3.23;52.71;97908.25;7036413;28;20617;-80
2023/01/19 07:21:49;;;;;;;29.17;15.77;;;;;;;2.81;54.52;97912.47;7035697;28;20228;-80
2023/01/19 07:25:11;;;;;;;25.93;15.20;;;;;;;3.10;54.16;97908.06;7026952;28;20231;-80
2023/01/19 07:28:35;;;;;;;17.53;12.50;;;;;;;3.36;53.55;97910.31;7011217;28;20578;-80
2023/01/19 07:31:57;;;;;;;15.67;11.70;;;;;;;2.87;53.94;97930.38;7017823;28;20198;-80
2023/01/19 07:35:18;;;;;;;19.90;12.40;;;;;;;2.90;53.65;97909.53;7033710;28;20225;-80
2023/01/19 07:38:40;;;;;;;19.67;13.90;;;;;;;2.64;53.98;97871.84;7035352;28;20256;-80
2023/01/19 07:42:01;;;;;;;16.17;11.53;;;;;;;2.92;54.33;97939.50;7035506;28;20232;-80
2023/01/19 07:45:26;;;;;;;19.57;12.50;;;;;;;2.06;53.90;97805.13;7035506;28;20671;-80
2023/01/19 07:48:47;;;;;;;17.37;12.50;;;;;;;2.71;55.00;97931.31;7038720;28;20311;-80
2023/01/19 07:52:09;;;;;;;16.27;11.47;;;;;;;2.66;54.53;97943.53;7049258;28;20574;-80
2023/01/19 07:55:31;;;;;;;15.60;10.37;;;;;;;3.04;54.62;97939.88;7040686;28;20284;-79
2023/01/19 07:58:52;;;;;;;15.33;10.23;;;;;;;2.66;53.83;97845.06;7043540;28;20316;-80
2023/01/19 08:02:15;;;;;;;16.73;10.27;;;;;;;2.82;53.12;97827.13;7039980;28;20961;-80
2023/01/19 08:05:37;;;;;;;10.53;8.40;;;;;;;3.43;52.86;97924.56;7038567;28;20275;-80
2023/01/19 08:08:58;;;;;;;8.57;7.67;;;;;;;3.85;50.93;97932.75;7039103;28;20204;-80
2023/01/19 08:12:20;;;;;;;8.30;7.20;;;;;;;3.26;52.56;97912.41;7038317;28;20292;-80
2023/01/19 08:15:41;;;;;;;10.07;8.00;;;;;;;3.84;51.62;97941.78;7038206;28;20582;-80
2023/01/19 08:19:04;;;;;;;8.57;6.93;;;;;;;4.09;51.13;97946.63;7039956;28;20228;-80
2023/01/19 08:22:26;;;;;;;9.87;7.23;;;;;;;3.83;50.58;97940.94;7040130;28;20295;-80
2023/01/19 08:25:47;;;;;;;8.73;6.50;;;;;;;3.75;51.08;97942.84;7039164;28;20683;-80
2023/01/19 08:29:09;;;;;;;8.50;7.57;;;;;;;3.08;52.23;97979.28;7041026;28;20489;-80
2023/01/19 08:32:31;;;;;;;10.27;6.97;;;;;;;2.88;53.13;97969.28;7039470;28;20342;-79
2023/01/19 08:35:54;;;;;;;7.17;6.23;;;;;;;3.30;51.87;97965.13;7035956;28;20229;-80
2023/01/19 08:39:16;;;;;;;8.77;6.33;;;;;;;3.98;49.07;97955.09;7036014;28;20256;-80
2023/01/19 08:42:38;;;;;;;10.03;6.27;;;;;;;4.08;49.11;97955.63;7035159;28;20206;-80
2023/01/19 08:45:59;;;;;;;8.80;6.27;;;;;;;5.72;47.56;97967.78;7033828;28;20285;-80
2023/01/19 08:49:21;;;;;;;9.27;8.20;;;;;;;7.08;44.57;97942.69;7034249;28;20218;-81
2023/01/19 08:52:44;;;;;;;7.57;6.07;;;;;;;6.59;43.77;97960.88;7035995;28;20248;-80
2023/01/19 08:56:11;;;;;;;9.53;7.63;;;;;;;5.39;48.12;97976.59;7034714;28;20240;-80
2023/01/19 08:59:32;;;;;;;9.37;7.10;;;;;;;6.36;45.94;97966.56;7035187;28;20218;-80
2023/01/19 09:02:55;;;;;;;9.17;6.47;;;;;;;5.85;46.28;97954.53;7035883;28;20298;-81
2023/01/19 09:06:18;;;;;;;7.50;6.40;;;;;;;4.67;47.63;97978.53;7035121;28;20235;-80
2023/01/19 09:09:42;;;;;;;8.27;7.07;;;;;;;4.97;47.41;97947.22;7021122;28;20259;-80
2023/01/19 09:13:04;;;;;;;7.37;6.67;;;;;;;5.34;47.42;97958.47;7036085;28;20209;-81
2023/01/19 09:16:27;;;;;;;9.73;7.10;;;;;;;4.06;49.60;97955.00;7007973;28;20215;-80
2023/01/19 09:19:48;;;;;;;11.80;6.83;;;;;;;5.27;47.97;97975.44;7010901;28;20323;-80
2023/01/19 09:23:11;;;;;;;7.90;6.53;;;;;;;4.97;48.57;97952.56;7019344;28;20255;-80
2023/01/19 09:26:35;;;;;;;9.00;6.73;;;;;;;5.34;47.57;97982.50;7019558;28;20774;-80
2023/01/19 09:29:56;;;;;;;9.50;6.80;;;;;;;5.73;47.02;97963.28;7037475;28;20197;-80
2023/01/19 09:33:19;;;;;;;9.43;7.10;;;;;;;4.86;48.51;97958.41;7035961;28;20241;-80
2023/01/19 09:36:40;;;;;;;10.33;6.37;;;;;;;5.38;47.80;97965.09;7036585;28;20465;-80
2023/01/19 09:40:02;;;;;;;6.50;5.50;;;;;;;5.52;47.69;97982.03;7037168;28;20783;-80
2023/01/19 09:43:35;;;;;;;7.83;5.87;;;;;;;5.75;47.56;97979.94;7036257;28;20214;-80
2023/01/19 09:46:57;;;;;;;8.77;6.37;;;;;;;6.09;47.21;97974.66;7036040;28;20314;-81
2023/01/19 09:50:23;;;;;;;6.50;5.73;;;;;;;6.66;46.39;97985.88;7035864;28;20255;-81
2023/01/19 09:53:52;;;;;;;7.27;5.97;;;;;;;5.97;46.51;97981.59;7036121;28;20346;-80
2023/01/19 09:57:14;;;;;;;10.63;6.07;;;;;;;5.47;47.64;97966.59;7047763;28;20281;-80
2023/01/19 10:00:37;;;;;;;6.57;5.97;;;;;;;6.03;46.81;97978.97;7011931;28;20690;-83
2023/01/19 10:04:11;;;;;;;8.43;6.00;;;;;;;5.68;47.29;97989.78;7026622;28;20350;-83
2023/01/19 10:07:42;;;;;;;7.87;5.40;;;;;;;5.43;47.08;97981.34;7033676;28;20304;-81
2023/01/19 10:11:13;;;;;;;9.73;5.70;;;;;;;4.98;48.16;97987.09;7033719;28;20292;-83
2023/01/19 10:14:41;;;;;;;7.73;5.73;;;;;;;5.92;46.76;97979.50;7031874;28;20291;-83
2023/01/19 10:18:12;;;;;;;7.57;6.17;;;;;;;5.74;47.20;97971.13;7033340;28;20232;-83
2023/01/19 10:21:40;;;;;;;7.37;5.90;;;;;;;5.66;47.27;97975.78;7033177;28;20225;-83
2023/01/19 10:25:05;;;;;;;7.20;5.77;;;;;;;5.37;48.65;97989.31;7031955;28;20240;-83
2023/01/19 10:28:27;;;;;;;6.27;5.60;;;;;;;5.72;47.43;97950.94;7032634;28;20226;-83
2023/01/19 10:31:49;;;;;;;5.47;4.97;;;;;;;5.60;47.52;97965.88;7031130;28;20613;-84
2023/01/19 10:35:22;;;;;;;6.83;5.20;;;;;;;6.07;47.10;97972.19;7032212;28;20319;-84
2023/01/19 10:38:43;;;;;;;7.67;5.40;;;;;;;5.78;47.28;97971.56;7032441;28;20311;-84
2023/01/19 10:42:06;;;;;;;7.73;5.93;;;;;;;5.41;47.15;97970.03;7032964;28;20270;-83
2023/01/19 10:45:29;;;;;;;6.13;5.53;;;;;;;6.18;46.56;97963.59;7031894;28;20229;-83
2023/01/19 10:48:52;;;;;;;6.27;4.80;;;;;;;6.77;45.64;97967.34;7032804;28;20235;-84
2023/01/19 10:52:25;;;;;;;5.63;4.50;;;;;;;7.27;44.25;97974.88;7032353;28;20347;-84
2023/01/19 10:55:47;;;;;;;6.73;5.17;;;;;;;7.16;43.67;97947.84;7031968;28;20192;-83
2023/01/19 10:59:29;;;;;;;6.43;5.10;;;;;;;6.22;45.98;97855.13;7032469;28;20236;-84
2023/01/19 11:02:51;;;;;;;5.50;5.00;;;;;;;7.34;44.57;97966.84;7032474;28;20280;-83
2023/01/19 11:06:23;;;;;;;5.90;4.67;;;;;;;7.76;43.05;97948.47;7032000;28;20273;-83
2023/01/19 11:09:46;;;;;;;5.67;4.60;;;;;;;6.75;43.85;97894.41;7032462;28;20186;-86
2023/01/19 11:13:12;;;;;;;11.30;4.93;;;;;;;7.16;43.61;97905.81;7032521;28;20210;-88
2023/01/19 11:16:36;;;;;;;7.40;4.80;;;;;;;7.66;45.21;97958.00;7017507;28;20848;-85
2023/01/19 11:20:00;;;;;;;9.83;5.47;;;;;;;7.01;45.86;97966.78;7004640;28;20227;-84
2023/01/19 11:23:26;;;;;;;5.30;4.83;;;;;;;7.20;46.25;97957.94;7003630;28;20687;-85
2023/01/19 11:26:50;;;;;;;5.47;4.70;;;;;;;7.69;43.61;97942.31;7003953;28;20242;-84
2023/01/19 11:30:18;;;;;;;5.83;5.23;;;;;;;7.44;45.49;97957.38;7003992;28;20321;-83
2023/01/19 11:33:42;;;;;;;9.97;5.50;;;;;;;7.80;44.03;97952.41;7004888;28;20321;-85
2023/01/19 11:37:06;;;;;;;5.73;4.77;;;;;;;7.81;43.51;97923.69;7024997;28;20636;-85
2023/01/19 11:40:27;;;;;;;5.93;4.87;;;;;;;6.76;43.31;97954.16;7031314;28;20282;-83
2023/01/19 11:43:52;;;;;;;6.33;4.87;;;;;;;6.53;45.02;97951.81;7031485;28;20257;-83
2023/01/19 11:47:17;;;;;;;6.90;5.60;;;;;;;6.34;45.73;97938.34;7031072;28;20326;-83
2023/01/19 11:50:41;;;;;;;11.70;5.20;;;;;;;6.53;45.81;97950.97;7031335;28;20233;-83
2023/01/19 11:54:08;;;;;;;6.10;4.70;;;;;;;6.64;44.39;97953.91;7031148;28;20282;-86
2023/01/19 11:57:30;;;;;;;6.33;5.00;;;;;;;5.60;46.79;97939.13;7030672;28;20221;-81
2023/01/19 12:00:55;;;;;;;5.30;4.73;;;;;;;5.64;46.48;97925.19;7035829;28;20297;-83
2023/01/19 12:04:19;;;;;;;7.50;4.97;;;;;;;5.93;46.32;97887.53;7045649;28;20229;-83
2023/01/19 12:07:41;;;;;;;8.27;5.20;;;;;;;6.40;45.63;97868.78;7019133;28;20710;-83
2023/01/19 12:11:04;;;;;;;7.13;5.53;;;;;;;5.89;47.87;97930.94;7018379;28;20216;-82
2023/01/19 12:14:31;;;;;;;6.83;4.87;;;;;;;6.76;46.47;97935.41;7031010;28;20220;-82
2023/01/19 12:17:58;;;;;;;6.37;5.30;;;;;;;6.36;45.41;97890.81;7030972;28;20364;-82
2023/01/19 12:21:20;;;;;;;8.03;4.63;;;;;;;6.10;46.88;97933.50;7030893;28;20231;-81
2023/01/19 12:24:47;;;;;;;6.00;4.63;;;;;;;6.12;45.74;97942.97;7029837;28;20759;-80
2023/01/19 12:28:09;;;;;;;5.40;4.73;;;;;;;6.24;46.24;97935.22;7029458;28;20301;-80
2023/01/19 12:31:31;;;;;;;7.93;5.23;;;;;;;6.51;46.51;97926.25;7028724;28;20204;-81
2023/01/19 12:34:55;;;;;;;6.20;4.83;;;;;;;6.25;46.00;97935.00;7031701;28;20196;-83
2023/01/19 12:38:30;;;;;;;4.73;4.30;;;;;;;6.62;45.63;97937.25;7035094;28;20222;-80
2023/01/19 12:42:05;;;;;;;5.77;4.93;;;;;;;6.24;46.71;97930.69;7036488;28;20222;-80
2023/01/19 12:45:30;;;;;;;5.63;4.23;;;;;;;6.52;44.70;97891.25;7034556;28;20193;-80
2023/01/19 12:48:52;;;;;;;6.60;4.50;;;;;;;7.26;44.46;97935.69;7035477;28;20702;-81
2023/01/19 12:52:22;;;;;;;6.60;4.67;;;;;;;7.18;44.92;97953.84;7036597;28;20269;-82
2023/01/19 12:55:45;;;;;;;6.97;5.47;;;;;;;7.16;44.86;97939.81;7036353;28;20341;-82
2023/01/19 12:59:07;;;;;;;7.23;4.77;;;;;;;7.18;45.59;97924.38;7036916;28;20208;-82
2023/01/19 13:02:46;;;;;;;5.67;5.10;;;;;;;7.22;44.75;97944.34;7037231;28;20363;-81
2023/01/19 13:06:08;;;;;;;8.23;5.03;;;;;;;7.16;44.77;97955.88;7036910;28;20330;-82
2023/01/19 13:09:31;;;;;;;5.90;5.30;;;;;;;7.03;45.08;97911.16;7037035;28;20274;-83
2023/01/19 13:13:16;;;;;;;6.57;5.40;;;;;;;7.49;44.72;97952.19;7038125;28;20234;-83
2023/01/19 13:17:02;;;;;;;8.63;5.90;;;;;;;7.29;44.75;97958.56;7037482;28;20319;-81
2023/01/19 13:20:27;;;;;;;5.63;4.97;;;;;;;7.54;44.27;97960.44;7037261;28;20268;-82
2023/01/19 13:23:53;;;;;;;6.93;5.07;;;;;;;7.08;44.97;97927.41;7035381;28;20235;-82
2023/01/19 13:27:15;;;;;;;5.03;4.53;;;;;;;7.01;45.04;97902.47;7032148;28;20307;-81
2023/01/19 13:30:39;;;;;;;6.40;5.30;;;;;;;7.20;45.35;97954.47;7034631;28;20256;-82
2023/01/19 13:34:02;;;;;;;5.83;4.90;;;;;;;7.28;45.33;97940.84;7027431;28;20217;-82
2023/01/19 13:37:29;;;;;;;9.20;6.43;;;;;;;7.45;45.24;97948.31;7006666;28;20707;-82
2023/01/19 13:40:51;;;;;;;5.67;5.10;;;;;;;7.19;45.75;97942.09;7014705;28;20361;-82
2023/01/19 13:44:18;;;;;;;8.03;5.20;;;;;;;6.66;45.88;97836.69;7034281;28;20249;-82
2023/01/19 13:47:43;;;;;;;14.60;9.60;;;;;;;7.12;46.41;97968.03;7034455;28;20364;-81
2023/01/19 13:51:07;;;;;;;8.10;7.30;;;;;;;7.36;46.36;97970.97;7033942;28;20217;-82
2023/01/19 13:54:29;;;;;;;7.57;6.20;;;;;;;7.63;45.42;97972.63;7034599;28;20287;-80
2023/01/19 13:57:51;;;;;;;8.27;5.63;;;;;;;7.61;45.67;97973.88;7035214;28;20230;-81
2023/01/19 14:01:21;;;;;;;6.53;5.30;;;;;;;7.26;46.51;97973.22;7035502;28;20382;-81
2023/01/19 14:04:43;;;;;;;6.30;5.70;;;;;;;7.31;46.46;97976.13;7034684;28;20258;-81
2023/01/19 14:08:10;;;;;;;7.00;6.23;;;;;;;7.19;46.98;97985.78;7041561;28;20255;-82
2023/01/19 14:11:32;;;;;;;7.00;6.30;;;;;;;6.91;47.48;97984.28;7025981;28;20228;-81
2023/01/19 14:14:53;;;;;;;6.97;5.10;;;;;;;6.93;47.63;97977.72;7011685;28;20305;-81
2023/01/19 14:18:28;;;;;;;6.80;5.80;;;;;;;7.06;46.99;97964.31;7019207;28;20294;-80
2023/01/19 14:22:01;;;;;;;7.00;5.77;;;;;;;7.32;47.58;97983.13;7013821;28;20254;-81
2023/01/19 14:25:29;;;;;;;6.47;5.87;;;;;;;7.49;46.93;97979.00;7011402;28;20270;-81
2023/01/19 14:28:51;;;;;;;6.30;5.70;;;;;;;7.45;46.60;97983.16;7020100;28;20285;-81
2023/01/19 14:32:15;;;;;;;7.27;6.10;;;;;;;7.17;47.89;97966.41;7030563;28;20266;-81
2023/01/19 14:35:38;;;;;;;7.90;6.43;;;;;;;7.47;46.75;97978.41;7014242;28;20199;-81
2023/01/19 14:39:00;;;;;;;8.07;6.20;;;;;;;7.18;47.67;97976.09;7017750;28;20232;-81
2023/01/19 14:42:27;;;;;;;14.50;6.77;;;;;;;7.08;48.20;97981.03;7034189;28;20271;-82
2023/01/19 14:45:49;;;;;;;17.27;10.33;;;;;;;7.35;47.67;97973.84;7032286;28;20299;-81
2023/01/19 14:49:17;;;;;;;12.43;8.90;;;;;;;7.38;47.54;97976.94;7034323;28;20690;-81
2023/01/19 14:52:41;;;;;;;10.97;8.57;;;;;;;6.54;48.75;97848.22;7034085;28;20208;-81
2023/01/19 14:56:04;;;;;;;10.90;8.47;;;;;;;7.18;49.36;97945.81;7032404;28;20232;-81
2023/01/19 14:59:26;;;;;;;11.83;8.10;;;;;;;7.29;49.68;97982.72;7032842;28;20276;-81
2023/01/19 15:02:48;;;;;;;8.10;7.20;;;;;;;6.99;50.08;97939.38;7032431;28;20254;-82
2023/01/19 15:06:10;;;;;;;7.10;6.30;;;;;;;7.31;49.60;97981.47;7031327;28;20314;-82
2023/01/19 15:09:33;;;;;;;8.77;5.83;;;;;;;6.90;48.58;97904.94;7032662;28;20225;-82
2023/01/19 15:12:55;;;;;;;9.13;6.03;;;;;;;6.99;49.32;97935.88;7032038;28;20254;-83
2023/01/19 15:16:16;;;;;;;7.50;6.47;;;;;;;7.02;50.46;97981.84;7031479;28;20375;-82
2023/01/19 15:19:38;;;;;;;11.77;7.80;;;;;;;6.84;50.10;97941.41;7031445;28;20800;-83
2023/01/19 15:22:59;;;;;;;13.87;6.73;;;;;;;7.16;49.51;97962.09;7027976;28;20309;-83
2023/01/19 15:26:24;;;;;;;10.67;6.53;;;;;;;6.93;49.73;97932.16;7030784;28;20318;-83
2023/01/19 15:29:45;;;;;;;7.63;6.83;;;;;;;6.21;49.58;97834.75;7034474;28;20292;-82
2023/01/19 15:33:11;;;;;;;9.67;6.57;;;;;;;7.14;49.36;97976.72;7033807;28;20288;-82
2023/01/19 15:36:32;;;;;;;8.73;7.63;;;;;;;7.15;49.59;97971.16;7034668;28;20254;-81
2023/01/19 15:39:54;;;;;;;9.60;7.43;;;;;;;7.13;49.85;97959.00;7036928;28;20278;-82
2023/01/19 15:43:16;;;;;;;10.33;7.30;;;;;;;7.08;50.61;97969.50;7035610;28;20222;-81
2023/01/19 15:46:38;;;;;;;8.53;6.93;;;;;;;6.53;50.99;97956.34;7028088;28;20311;-81
2023/01/19 15:49:59;;;;;;;7.83;6.87;;;;;;;6.16;51.04;97957.63;7028785;28;20284;-81
2023/01/19 15:53:22;;;;;;;7.73;6.77;;;;;;;6.11;51.00;97941.34;7021018;28;20226;-81
2023/01/19 15:56:44;;;;;;;8.23;6.37;;;;;;;6.04;50.98;97959.22;7012436;28;20221;-81
2023/01/19 16:00:08;;;;;;;10.43;7.03;;;;;;;5.98;51.90;97983.22;7035922;28;20678;-82
2023/01/19 16:03:30;;;;;;;9.40;6.63;;;;;;;6.39;50.35;97952.81;7023491;28;20202;-81